sensor_id;sensor_type;location;lat;lon;timestamp;temperature;humidity
19646;DHT22;9971;52.446;13.452;2023-07-29T00:04:54;19.10;99.90
19646;DHT22;9971;52.446;13.452;2023-07-29T00:09:57;18.90;99.90
19646;DHT22;9971;52.446;13.452;2023-07-29T00:14:59;18.90;99.90
19646;DHT22;9971;52.446;13.452;2023-07-29T00:20:01;18.90;99.90
19646;DHT22;9971;52.446;13.452;2023-07-29T00:25:04;18.80;99.90
19646;DHT22;9971;52.446;13.452;2023-07-29T00:30:07;18.70;99.90
19646;DHT22;9971;52.446;13.452;2023-07-29T00:35:10;18.70;99.90
19646;DHT22;9971;52.446;13.452;2023-07-29T00:40:19;18.60;99.90
19646;DHT22;9971;52.446;13.452;2023-07-29T00:45:18;18.60;99.90
19646;DHT22;9971;52.446;13.452;2023-07-29T00:50:21;18.60;99.90
19646;DHT22;9971;52.446;13.452;2023-07-29T00:55:23;18.60;99.90
19646;DHT22;9971;52.446;13.452;2023-07-29T01:00:25;18.50;99.90
19646;DHT22;9971;52.446;13.452;2023-07-29T01:05:30;18.50;99.90
19646;DHT22;9971;52.446;13.452;2023-07-29T01:10:46;18.50;99.90
19646;DHT22;9971;52.446;13.452;2023-07-29T01:16:03;18.40;99.90
19646;DHT22;9971;52.446;13.452;2023-07-29T01:21:03;18.30;99.90
19646;DHT22;9971;52.446;13.452;2023-07-29T01:26:05;18.20;99.90
19646;DHT22;9971;52.446;13.452;2023-07-29T01:36:25;18.10;99.90
19646;DHT22;9971;52.446;13.452;2023-07-29T01:41:26;18.00;99.90
19646;DHT22;9971;52.446;13.452;2023-07-29T01:46:28;17.90;99.90
19646;DHT22;9971;52.446;13.452;2023-07-29T01:51:31;17.80;99.90
19646;DHT22;9971;52.446;13.452;2023-07-29T01:56:33;17.80;99.90
19646;DHT22;9971;52.446;13.452;2023-07-29T02:01:35;17.80;99.90
19646;DHT22;9971;52.446;13.452;2023-07-29T02:06:38;17.80;99.90
19646;DHT22;9971;52.446;13.452;2023-07-29T02:11:42;17.80;99.90
19646;DHT22;9971;52.446;13.452;2023-07-29T02:16:45;17.70;99.90
19646;DHT22;9971;52.446;13.452;2023-07-29T02:21:47;17.70;99.90
19646;DHT22;9971;52.446;13.452;2023-07-29T02:26:51;17.60;99.90
19646;DHT22;9971;52.446;13.452;2023-07-29T02:31:53;17.60;99.90
19646;DHT22;9971;52.446;13.452;2023-07-29T02:36:56;17.60;99.90
19646;DHT22;9971;52.446;13.452;2023-07-29T02:41:58;17.50;99.90
19646;DHT22;9971;52.446;13.452;2023-07-29T02:47:00;17.60;99.90
19646;DHT22;9971;52.446;13.452;2023-07-29T02:52:03;17.60;99.90
19646;DHT22;9971;52.446;13.452;2023-07-29T02:57:06;17.40;99.90
19646;DHT22;9971;52.446;13.452;2023-07-29T03:02:09;17.40;99.90
19646;DHT22;9971;52.446;13.452;2023-07-29T03:07:11;17.40;99.90
19646;DHT22;9971;52.446;13.452;2023-07-29T03:12:14;17.40;99.90
19646;DHT22;9971;52.446;13.452;2023-07-29T03:17:16;17.50;99.90
19646;DHT22;9971;52.446;13.452;2023-07-29T03:22:19;17.40;99.90
19646;DHT22;9971;52.446;13.452;2023-07-29T03:27:21;17.40;99.90
19646;DHT22;9971;52.446;13.452;2023-07-29T03:32:24;17.40;99.90
19646;DHT22;9971;52.446;13.452;2023-07-29T03:37:26;17.30;99.90
19646;DHT22;9971;52.446;13.452;2023-07-29T03:42:28;17.30;99.90
19646;DHT22;9971;52.446;13.452;2023-07-29T03:47:31;17.10;99.90
19646;DHT22;9971;52.446;13.452;2023-07-29T03:52:34;17.10;99.90
19646;DHT22;9971;52.446;13.452;2023-07-29T03:57:36;17.20;99.90
19646;DHT22;9971;52.446;13.452;2023-07-29T04:02:38;17.20;99.90
19646;DHT22;9971;52.446;13.452;2023-07-29T04:07:40;17.40;99.90
19646;DHT22;9971;52.446;13.452;2023-07-29T04:12:42;17.60;99.90
19646;DHT22;9971;52.446;13.452;2023-07-29T04:17:45;17.70;99.90
19646;DHT22;9971;52.446;13.452;2023-07-29T04:22:47;17.90;99.90
19646;DHT22;9971;52.446;13.452;2023-07-29T04:27:50;18.00;99.90
19646;DHT22;9971;52.446;13.452;2023-07-29T04:32:52;18.20;99.90
19646;DHT22;9971;52.446;13.452;2023-07-29T04:37:55;18.30;99.90
19646;DHT22;9971;52.446;13.452;2023-07-29T04:42:57;18.30;99.90
19646;DHT22;9971;52.446;13.452;2023-07-29T04:48:00;18.30;99.90
19646;DHT22;9971;52.446;13.452;2023-07-29T04:53:02;18.40;99.90
19646;DHT22;9971;52.446;13.452;2023-07-29T04:58:04;18.40;99.90
19646;DHT22;9971;52.446;13.452;2023-07-29T05:03:06;18.40;99.90
19646;DHT22;9971;52.446;13.452;2023-07-29T05:08:09;18.50;99.90
19646;DHT22;9971;52.446;13.452;2023-07-29T05:13:11;18.60;99.90
19646;DHT22;9971;52.446;13.452;2023-07-29T05:18:14;18.70;99.90
19646;DHT22;9971;52.446;13.452;2023-07-29T05:23:16;18.60;99.90
19646;DHT22;9971;52.446;13.452;2023-07-29T05:28:19;18.70;99.90
19646;DHT22;9971;52.446;13.452;2023-07-29T05:33:21;18.90;99.90
19646;DHT22;9971;52.446;13.452;2023-07-29T05:38:24;19.20;99.90
19646;DHT22;9971;52.446;13.452;2023-07-29T05:43:26;19.30;99.90
19646;DHT22;9971;52.446;13.452;2023-07-29T05:48:28;19.40;99.90
19646;DHT22;9971;52.446;13.452;2023-07-29T05:53:31;19.40;99.90
19646;DHT22;9971;52.446;13.452;2023-07-29T05:58:33;19.60;99.90
19646;DHT22;9971;52.446;13.452;2023-07-29T06:03:35;19.70;99.90
19646;DHT22;9971;52.446;13.452;2023-07-29T06:08:38;19.80;99.90
19646;DHT22;9971;52.446;13.452;2023-07-29T06:13:40;20.10;99.90
19646;DHT22;9971;52.446;13.452;2023-07-29T06:18:44;20.40;99.90
19646;DHT22;9971;52.446;13.452;2023-07-29T06:23:49;20.50;99.90
19646;DHT22;9971;52.446;13.452;2023-07-29T06:28:53;20.60;99.90
19646;DHT22;9971;52.446;13.452;2023-07-29T06:33:57;20.80;99.90
19646;DHT22;9971;52.446;13.452;2023-07-29T06:39:00;20.90;99.90
19646;DHT22;9971;52.446;13.452;2023-07-29T06:44:03;21.00;99.90
19646;DHT22;9971;52.446;13.452;2023-07-29T06:49:05;21.20;99.90
19646;DHT22;9971;52.446;13.452;2023-07-29T06:54:08;21.20;99.90
19646;DHT22;9971;52.446;13.452;2023-07-29T06:59:11;21.40;99.90
19646;DHT22;9971;52.446;13.452;2023-07-29T07:04:16;21.80;99.90
19646;DHT22;9971;52.446;13.452;2023-07-29T07:09:19;22.00;99.90
19646;DHT22;9971;52.446;13.452;2023-07-29T07:14:22;22.10;99.90
19646;DHT22;9971;52.446;13.452;2023-07-29T07:19:25;22.10;99.90
19646;DHT22;9971;52.446;13.452;2023-07-29T07:24:28;22.10;99.90
19646;DHT22;9971;52.446;13.452;2023-07-29T07:29:35;22.30;99.90
19646;DHT22;9971;52.446;13.452;2023-07-29T07:34:38;22.40;99.90
19646;DHT22;9971;52.446;13.452;2023-07-29T07:39:43;22.40;99.90
19646;DHT22;9971;52.446;13.452;2023-07-29T07:44:46;22.70;99.90
19646;DHT22;9971;52.446;13.452;2023-07-29T07:49:49;22.70;99.90
19646;DHT22;9971;52.446;13.452;2023-07-29T07:54:52;22.90;99.90
19646;DHT22;9971;52.446;13.452;2023-07-29T07:59:56;23.00;99.90
19646;DHT22;9971;52.446;13.452;2023-07-29T08:21:12;23.70;99.90
19646;DHT22;9971;52.446;13.452;2023-07-29T08:26:18;23.80;99.90
19646;DHT22;9971;52.446;13.452;2023-07-29T08:52:57;24.70;99.90
19646;DHT22;9971;52.446;13.452;2023-07-29T08:57:59;24.70;99.90
19646;DHT22;9971;52.446;13.452;2023-07-29T09:03:03;25.00;99.90
19646;DHT22;9971;52.446;13.452;2023-07-29T09:08:06;25.00;99.90
19646;DHT22;9971;52.446;13.452;2023-07-29T09:13:08;25.00;99.90
19646;DHT22;9971;52.446;13.452;2023-07-29T09:18:19;25.10;99.90
19646;DHT22;9971;52.446;13.452;2023-07-29T09:23:21;24.90;99.90
19646;DHT22;9971;52.446;13.452;2023-07-29T09:28:24;25.20;99.90
19646;DHT22;9971;52.446;13.452;2023-07-29T09:33:26;25.30;99.90
19646;DHT22;9971;52.446;13.452;2023-07-29T09:38:29;25.30;99.90
19646;DHT22;9971;52.446;13.452;2023-07-29T09:43:33;25.70;99.90
19646;DHT22;9971;52.446;13.452;2023-07-29T09:48:34;25.70;99.90
19646;DHT22;9971;52.446;13.452;2023-07-29T09:53:41;25.70;99.90
19646;DHT22;9971;52.446;13.452;2023-07-29T09:58:44;25.80;99.90
19646;DHT22;9971;52.446;13.452;2023-07-29T10:03:45;26.10;99.90
19646;DHT22;9971;52.446;13.452;2023-07-29T10:08:47;26.20;99.90
19646;DHT22;9971;52.446;13.452;2023-07-29T10:13:50;26.40;99.90
19646;DHT22;9971;52.446;13.452;2023-07-29T10:18:52;26.60;99.90
19646;DHT22;9971;52.446;13.452;2023-07-29T10:23:56;26.70;99.90
19646;DHT22;9971;52.446;13.452;2023-07-29T10:28:57;26.60;99.90
19646;DHT22;9971;52.446;13.452;2023-07-29T10:33:59;26.90;99.90
19646;DHT22;9971;52.446;13.452;2023-07-29T10:39:02;27.00;99.90
19646;DHT22;9971;52.446;13.452;2023-07-29T10:44:05;27.00;99.90
19646;DHT22;9971;52.446;13.452;2023-07-29T10:49:07;26.80;99.90
19646;DHT22;9971;52.446;13.452;2023-07-29T10:54:10;26.80;99.90
19646;DHT22;9971;52.446;13.452;2023-07-29T10:59:31;26.90;99.90
19646;DHT22;9971;52.446;13.452;2023-07-29T11:04:45;27.20;99.90
19646;DHT22;9971;52.446;13.452;2023-07-29T11:09:55;27.20;99.90
19646;DHT22;9971;52.446;13.452;2023-07-29T11:14:57;27.00;99.90
19646;DHT22;9971;52.446;13.452;2023-07-29T11:20:00;26.70;99.90
19646;DHT22;9971;52.446;13.452;2023-07-29T11:25:07;25.90;99.90
19646;DHT22;9971;52.446;13.452;2023-07-29T11:30:14;24.10;99.90
19646;DHT22;9971;52.446;13.452;2023-07-29T11:35:17;22.70;99.90
19646;DHT22;9971;52.446;13.452;2023-07-29T11:40:21;22.10;99.90
19646;DHT22;9971;52.446;13.452;2023-07-29T11:45:24;21.70;99.90
19646;DHT22;9971;52.446;13.452;2023-07-29T11:50:26;21.60;99.90
19646;DHT22;9971;52.446;13.452;2023-07-29T11:55:29;21.80;99.90
19646;DHT22;9971;52.446;13.452;2023-07-29T12:00:32;21.90;99.90
19646;DHT22;9971;52.446;13.452;2023-07-29T12:05:34;22.10;99.90
19646;DHT22;9971;52.446;13.452;2023-07-29T12:10:37;22.20;99.90
19646;DHT22;9971;52.446;13.452;2023-07-29T12:15:40;22.10;99.90
19646;DHT22;9971;52.446;13.452;2023-07-29T12:20:42;22.20;99.90
19646;DHT22;9971;52.446;13.452;2023-07-29T12:25:45;22.20;99.90
19646;DHT22;9971;52.446;13.452;2023-07-29T12:30:48;22.10;99.90
19646;DHT22;9971;52.446;13.452;2023-07-29T12:35:53;21.90;99.90
19646;DHT22;9971;52.446;13.452;2023-07-29T12:40:56;21.80;99.90
19646;DHT22;9971;52.446;13.452;2023-07-29T12:45:58;21.90;99.90
19646;DHT22;9971;52.446;13.452;2023-07-29T12:51:00;22.10;99.90
19646;DHT22;9971;52.446;13.452;2023-07-29T12:56:03;22.40;99.90
19646;DHT22;9971;52.446;13.452;2023-07-29T13:01:05;22.70;99.90
19646;DHT22;9971;52.446;13.452;2023-07-29T13:06:09;23.00;99.90
19646;DHT22;9971;52.446;13.452;2023-07-29T13:11:11;23.00;99.90
19646;DHT22;9971;52.446;13.452;2023-07-29T13:16:14;23.00;99.90
19646;DHT22;9971;52.446;13.452;2023-07-29T13:21:17;23.30;99.90
19646;DHT22;9971;52.446;13.452;2023-07-29T13:26:19;23.30;99.90
19646;DHT22;9971;52.446;13.452;2023-07-29T13:31:22;23.20;99.90
19646;DHT22;9971;52.446;13.452;2023-07-29T13:36:24;23.30;99.90
19646;DHT22;9971;52.446;13.452;2023-07-29T13:41:27;23.50;99.90
19646;DHT22;9971;52.446;13.452;2023-07-29T13:46:29;24.00;99.90
19646;DHT22;9971;52.446;13.452;2023-07-29T13:51:32;24.40;99.90
19646;DHT22;9971;52.446;13.452;2023-07-29T13:56:35;24.70;99.90
19646;DHT22;9971;52.446;13.452;2023-07-29T14:01:37;25.20;99.90
19646;DHT22;9971;52.446;13.452;2023-07-29T14:06:39;25.40;99.90
19646;DHT22;9971;52.446;13.452;2023-07-29T14:11:42;25.50;99.90
19646;DHT22;9971;52.446;13.452;2023-07-29T14:16:45;25.50;99.90
19646;DHT22;9971;52.446;13.452;2023-07-29T14:21:47;25.50;99.90
19646;DHT22;9971;52.446;13.452;2023-07-29T14:26:49;25.90;99.90
19646;DHT22;9971;52.446;13.452;2023-07-29T14:31:52;25.90;99.90
19646;DHT22;9971;52.446;13.452;2023-07-29T14:36:55;25.70;99.90
19646;DHT22;9971;52.446;13.452;2023-07-29T14:41:59;26.00;99.90
19646;DHT22;9971;52.446;13.452;2023-07-29T14:47:02;26.00;99.90
19646;DHT22;9971;52.446;13.452;2023-07-29T14:52:05;25.80;99.90
19646;DHT22;9971;52.446;13.452;2023-07-29T14:57:07;25.90;99.90
19646;DHT22;9971;52.446;13.452;2023-07-29T15:02:09;25.70;99.90
19646;DHT22;9971;52.446;13.452;2023-07-29T15:07:14;25.50;99.90
19646;DHT22;9971;52.446;13.452;2023-07-29T15:12:16;25.30;99.90
19646;DHT22;9971;52.446;13.452;2023-07-29T15:17:19;25.30;99.90
19646;DHT22;9971;52.446;13.452;2023-07-29T15:22:22;25.00;99.90
19646;DHT22;9971;52.446;13.452;2023-07-29T15:27:25;24.90;99.90
19646;DHT22;9971;52.446;13.452;2023-07-29T15:32:28;24.80;99.90
19646;DHT22;9971;52.446;13.452;2023-07-29T15:37:30;24.60;99.90
19646;DHT22;9971;52.446;13.452;2023-07-29T15:42:33;24.40;99.90
19646;DHT22;9971;52.446;13.452;2023-07-29T15:47:36;24.30;99.90
19646;DHT22;9971;52.446;13.452;2023-07-29T15:52:40;23.50;99.90
19646;DHT22;9971;52.446;13.452;2023-07-29T15:57:43;22.50;99.90
19646;DHT22;9971;52.446;13.452;2023-07-29T16:02:45;21.60;99.90
19646;DHT22;9971;52.446;13.452;2023-07-29T16:07:49;21.10;99.90
19646;DHT22;9971;52.446;13.452;2023-07-29T16:12:53;21.30;99.90
19646;DHT22;9971;52.446;13.452;2023-07-29T16:17:59;22.00;99.90
19646;DHT22;9971;52.446;13.452;2023-07-29T16:23:01;22.30;99.90
19646;DHT22;9971;52.446;13.452;2023-07-29T16:28:04;22.40;99.90
19646;DHT22;9971;52.446;13.452;2023-07-29T16:33:06;22.20;99.90
19646;DHT22;9971;52.446;13.452;2023-07-29T16:38:10;22.00;99.90
19646;DHT22;9971;52.446;13.452;2023-07-29T16:43:12;21.90;99.90
19646;DHT22;9971;52.446;13.452;2023-07-29T16:48:15;21.90;99.90
19646;DHT22;9971;52.446;13.452;2023-07-29T16:53:17;21.90;99.90
19646;DHT22;9971;52.446;13.452;2023-07-29T16:58:19;21.90;99.90
19646;DHT22;9971;52.446;13.452;2023-07-29T17:03:23;22.00;99.90
19646;DHT22;9971;52.446;13.452;2023-07-29T17:08:26;22.10;99.90
19646;DHT22;9971;52.446;13.452;2023-07-29T17:13:29;22.20;99.90
19646;DHT22;9971;52.446;13.452;2023-07-29T17:18:32;22.20;99.90
19646;DHT22;9971;52.446;13.452;2023-07-29T17:23:34;22.20;99.90
19646;DHT22;9971;52.446;13.452;2023-07-29T17:28:37;22.80;99.90
19646;DHT22;9971;52.446;13.452;2023-07-29T17:33:40;23.30;99.90
19646;DHT22;9971;52.446;13.452;2023-07-29T17:38:43;23.60;99.90
19646;DHT22;9971;52.446;13.452;2023-07-29T17:43:45;24.00;99.90
19646;DHT22;9971;52.446;13.452;2023-07-29T17:48:47;24.20;99.90
19646;DHT22;9971;52.446;13.452;2023-07-29T17:53:51;24.40;99.90
19646;DHT22;9971;52.446;13.452;2023-07-29T17:58:54;24.50;99.90
19646;DHT22;9971;52.446;13.452;2023-07-29T18:03:58;24.40;99.90
19646;DHT22;9971;52.446;13.452;2023-07-29T18:09:01;24.30;99.90
19646;DHT22;9971;52.446;13.452;2023-07-29T18:14:03;24.20;99.90
19646;DHT22;9971;52.446;13.452;2023-07-29T18:19:06;23.70;99.90
19646;DHT22;9971;52.446;13.452;2023-07-29T18:24:09;23.30;99.90
19646;DHT22;9971;52.446;13.452;2023-07-29T18:29:11;23.20;99.90
19646;DHT22;9971;52.446;13.452;2023-07-29T18:34:14;22.90;99.90
19646;DHT22;9971;52.446;13.452;2023-07-29T18:39:16;22.70;99.90
19646;DHT22;9971;52.446;13.452;2023-07-29T18:44:19;22.30;99.90
19646;DHT22;9971;52.446;13.452;2023-07-29T18:49:21;22.10;99.90
19646;DHT22;9971;52.446;13.452;2023-07-29T18:54:24;21.90;99.90
19646;DHT22;9971;52.446;13.452;2023-07-29T18:59:26;21.70;99.90
19646;DHT22;9971;52.446;13.452;2023-07-29T19:04:30;21.60;99.90
19646;DHT22;9971;52.446;13.452;2023-07-29T19:09:34;21.40;99.90
19646;DHT22;9971;52.446;13.452;2023-07-29T19:14:37;21.20;99.90
19646;DHT22;9971;52.446;13.452;2023-07-29T19:19:39;21.10;99.90
19646;DHT22;9971;52.446;13.452;2023-07-29T19:24:41;20.90;99.90
19646;DHT22;9971;52.446;13.452;2023-07-29T19:29:44;20.80;99.90
19646;DHT22;9971;52.446;13.452;2023-07-29T19:34:51;20.70;99.90
19646;DHT22;9971;52.446;13.452;2023-07-29T19:39:50;20.50;99.90
19646;DHT22;9971;52.446;13.452;2023-07-29T19:44:52;20.40;99.90
19646;DHT22;9971;52.446;13.452;2023-07-29T19:49:54;20.40;99.90
19646;DHT22;9971;52.446;13.452;2023-07-29T19:54:57;20.30;99.90
19646;DHT22;9971;52.446;13.452;2023-07-29T20:00:00;20.20;99.90
19646;DHT22;9971;52.446;13.452;2023-07-29T20:05:04;20.10;99.90
19646;DHT22;9971;52.446;13.452;2023-07-29T20:10:07;20.00;99.90
19646;DHT22;9971;52.446;13.452;2023-07-29T20:15:10;20.00;99.90
19646;DHT22;9971;52.446;13.452;2023-07-29T20:20:13;19.90;99.90
19646;DHT22;9971;52.446;13.452;2023-07-29T20:25:15;19.80;99.90
19646;DHT22;9971;52.446;13.452;2023-07-29T20:30:18;19.80;99.90
19646;DHT22;9971;52.446;13.452;2023-07-29T20:35:20;19.70;99.90
19646;DHT22;9971;52.446;13.452;2023-07-29T20:40:26;19.70;99.90
19646;DHT22;9971;52.446;13.452;2023-07-29T20:45:29;19.60;99.90
19646;DHT22;9971;52.446;13.452;2023-07-29T20:50:32;19.60;99.90
19646;DHT22;9971;52.446;13.452;2023-07-29T20:55:35;19.60;99.90
19646;DHT22;9971;52.446;13.452;2023-07-29T21:00:38;19.60;99.90
19646;DHT22;9971;52.446;13.452;2023-07-29T21:05:40;19.60;99.90
19646;DHT22;9971;52.446;13.452;2023-07-29T21:10:42;19.60;99.90
19646;DHT22;9971;52.446;13.452;2023-07-29T21:15:50;19.60;99.90
19646;DHT22;9971;52.446;13.452;2023-07-29T21:20:52;19.60;99.90
19646;DHT22;9971;52.446;13.452;2023-07-29T21:25:54;19.60;99.90
19646;DHT22;9971;52.446;13.452;2023-07-29T21:30:57;19.60;99.90
19646;DHT22;9971;52.446;13.452;2023-07-29T21:35:59;19.50;99.90
19646;DHT22;9971;52.446;13.452;2023-07-29T21:41:01;19.50;99.90
19646;DHT22;9971;52.446;13.452;2023-07-29T21:46:04;19.50;99.90
19646;DHT22;9971;52.446;13.452;2023-07-29T21:51:06;19.40;99.90
19646;DHT22;9971;52.446;13.452;2023-07-29T21:56:08;19.40;99.90
19646;DHT22;9971;52.446;13.452;2023-07-29T22:01:11;19.50;99.90
19646;DHT22;9971;52.446;13.452;2023-07-29T22:06:13;19.40;99.90
19646;DHT22;9971;52.446;13.452;2023-07-29T22:11:17;19.50;99.90
19646;DHT22;9971;52.446;13.452;2023-07-29T22:16:20;19.40;99.90
19646;DHT22;9971;52.446;13.452;2023-07-29T22:21:25;19.40;99.90
19646;DHT22;9971;52.446;13.452;2023-07-29T22:26:28;19.30;99.90
19646;DHT22;9971;52.446;13.452;2023-07-29T22:31:30;19.30;99.90
19646;DHT22;9971;52.446;13.452;2023-07-29T22:36:33;19.30;99.90
19646;DHT22;9971;52.446;13.452;2023-07-29T22:41:35;19.20;99.90
19646;DHT22;9971;52.446;13.452;2023-07-29T22:46:38;19.20;99.90
19646;DHT22;9971;52.446;13.452;2023-07-29T22:51:41;19.20;99.90
19646;DHT22;9971;52.446;13.452;2023-07-29T22:56:43;19.10;99.90
19646;DHT22;9971;52.446;13.452;2023-07-29T23:01:46;19.10;99.90
19646;DHT22;9971;52.446;13.452;2023-07-29T23:06:49;19.00;99.90
19646;DHT22;9971;52.446;13.452;2023-07-29T23:11:52;19.00;99.90
19646;DHT22;9971;52.446;13.452;2023-07-29T23:16:54;18.90;99.90
19646;DHT22;9971;52.446;13.452;2023-07-29T23:21:57;18.90;99.90
19646;DHT22;9971;52.446;13.452;2023-07-29T23:26:59;18.80;99.90
19646;DHT22;9971;52.446;13.452;2023-07-29T23:32:02;18.80;99.90
19646;DHT22;9971;52.446;13.452;2023-07-29T23:37:05;18.80;99.90
19646;DHT22;9971;52.446;13.452;2023-07-29T23:42:07;18.70;99.90
19646;DHT22;9971;52.446;13.452;2023-07-29T23:47:10;18.70;99.90
19646;DHT22;9971;52.446;13.452;2023-07-29T23:52:13;18.70;99.90
19646;DHT22;9971;52.446;13.452;2023-07-29T23:57:16;18.70;99.90
